Time;durP1;ratioP1;P1;durP2;ratioP2;P2;SDS_P1;SDS_P2;PMS_P1;PMS_P2;Temp;Humidity;BMP_temperature;BMP_pressure;BME280_temperature;BME280_humidity;BME280_pressure;Samples;Min_cycle;Max_cycle;Signal;HPM_P1;HPM_P2
2022/12/18 00:01:16;;;;;;;29.57;10.57;;;;;;;;;;5036239;28;20216;-40
2022/12/18 00:03:44;;;;;;;23.00;9.53;;;;;;;;;;5036452;28;20296;-40
2022/12/18 00:06:14;;;;;;;36.23;14.00;;;;;;;;;;5036161;28;20544;-39
2022/12/18 00:08:42;;;;;;;22.77;9.67;;;;;;;;;;5036512;28;20291;-39
2022/12/18 00:11:14;;;;;;;22.23;10.37;;;;;;;;;;5035848;28;20228;-40
2022/12/18 00:13:42;;;;;;;11.70;5.87;;;;;;;;;;5036296;28;20201;-39
2022/12/18 00:16:12;;;;;;;10.30;5.83;;;;;;;;;;5036305;28;20200;-40
2022/12/18 00:18:40;;;;;;;11.63;6.60;;;;;;;;;;5036210;28;20247;-39
2022/12/18 00:21:09;;;;;;;17.97;7.77;;;;;;;;;;5036187;28;20201;-40
2022/12/18 00:23:37;;;;;;;20.40;7.33;;;;;;;;;;5035935;28;20211;-39
2022/12/18 00:26:09;;;;;;;16.13;7.20;;;;;;;;;;5035653;28;20650;-39
2022/12/18 00:28:36;;;;;;;13.30;6.63;;;;;;;;;;5051425;28;20211;-40
2022/12/18 00:31:06;;;;;;;10.53;5.73;;;;;;;;;;5034774;28;20201;-40
2022/12/18 00:33:34;;;;;;;11.80;4.40;;;;;;;;;;5035748;28;20212;-40
2022/12/18 00:36:10;;;;;;;21.07;7.93;;;;;;;;;;5035439;28;20631;-40
2022/12/18 00:38:37;;;;;;;9.37;4.90;;;;;;;;;;5035656;28;20228;-39
2022/12/18 00:41:07;;;;;;;19.43;6.13;;;;;;;;;;5035975;28;20291;-39
2022/12/18 00:43:36;;;;;;;10.30;5.67;;;;;;;;;;5051275;28;20212;-40
2022/12/18 00:46:04;;;;;;;16.47;6.57;;;;;;;;;;5035636;28;20662;-40
2022/12/18 00:48:32;;;;;;;18.53;4.40;;;;;;;;;;5051616;28;20212;-40
2022/12/18 00:50:59;;;;;;;14.07;7.50;;;;;;;;;;5035569;28;20209;-40
2022/12/18 00:53:26;;;;;;;10.60;4.27;;;;;;;;;;5035325;28;20205;-41
2022/12/18 00:55:54;;;;;;;14.00;6.27;;;;;;;;;;5035369;28;20201;-40
2022/12/18 00:58:22;;;;;;;17.67;8.63;;;;;;;;;;5035292;28;20531;-39
2022/12/18 01:00:48;;;;;;;11.13;5.33;;;;;;;;;;5035016;28;20243;-40
2022/12/18 01:03:16;;;;;;;22.03;6.77;;;;;;;;;;5051220;28;20208;-40
2022/12/18 01:05:43;;;;;;;11.40;6.20;;;;;;;;;;5035066;28;20196;-40
2022/12/18 01:08:11;;;;;;;34.33;9.60;;;;;;;;;;5035380;28;20204;-40
2022/12/18 01:10:41;;;;;;;27.57;11.03;;;;;;;;;;5034911;28;20602;-40
2022/12/18 01:13:08;;;;;;;19.30;9.17;;;;;;;;;;5034090;28;20204;-39
2022/12/18 01:15:35;;;;;;;13.43;7.70;;;;;;;;;;5035011;28;20231;-40
2022/12/18 01:18:05;;;;;;;11.37;5.73;;;;;;;;;;5034792;28;20282;-40
2022/12/18 01:20:32;;;;;;;11.53;5.70;;;;;;;;;;5034808;28;20276;-40
2022/12/18 01:22:59;;;;;;;16.73;6.43;;;;;;;;;;5034111;28;20200;-41
2022/12/18 01:25:26;;;;;;;13.73;5.47;;;;;;;;;;5034297;28;20200;-40
2022/12/18 01:27:53;;;;;;;23.50;12.03;;;;;;;;;;5034702;28;20644;-39
2022/12/18 01:30:20;;;;;;;32.03;11.83;;;;;;;;;;5034941;28;20600;-40
2022/12/18 01:32:47;;;;;;;27.97;10.77;;;;;;;;;;5033883;28;20595;-39
2022/12/18 01:35:14;;;;;;;50.27;16.77;;;;;;;;;;5034719;28;20302;-40
2022/12/18 01:37:41;;;;;;;32.27;12.70;;;;;;;;;;5034700;28;20224;-40
2022/12/18 01:40:09;;;;;;;29.53;10.40;;;;;;;;;;5034522;28;20212;-40
2022/12/18 01:42:37;;;;;;;18.60;7.83;;;;;;;;;;5034522;28;20213;-39
2022/12/18 01:45:06;;;;;;;29.23;12.73;;;;;;;;;;5034771;28;20270;-39
2022/12/18 01:47:45;;;;;;;26.63;10.37;;;;;;;;;;5034909;28;20196;-39
2022/12/18 01:50:18;;;;;;;21.57;9.80;;;;;;;;;;5033914;28;20216;-40
2022/12/18 01:52:55;;;;;;;31.23;10.73;;;;;;;;;;5034450;28;20635;-40
2022/12/18 01:55:24;;;;;;;26.43;9.53;;;;;;;;;;5033692;28;20292;-40
2022/12/18 01:57:53;;;;;;;20.67;8.80;;;;;;;;;;5034514;28;20224;-40
2022/12/18 02:00:21;;;;;;;54.00;20.73;;;;;;;;;;5017508;28;20600;-40
2022/12/18 02:02:51;;;;;;;32.33;11.70;;;;;;;;;;5038353;28;20216;-40
2022/12/18 02:05:25;;;;;;;39.43;14.10;;;;;;;;;;5038111;28;20200;-40
2022/12/18 02:08:03;;;;;;;21.40;8.97;;;;;;;;;;5037853;28;20511;-40
2022/12/18 02:10:36;;;;;;;20.83;9.27;;;;;;;;;;5054504;28;20193;-39
2022/12/18 02:13:20;;;;;;;31.23;10.03;;;;;;;;;;5037660;28;20308;-39
2022/12/18 02:15:47;;;;;;;21.70;8.70;;;;;;;;;;5054852;28;20189;-39
2022/12/18 02:18:19;;;;;;;25.37;9.37;;;;;;;;;;5053879;28;20256;-40
2022/12/18 02:21:13;;;;;;;35.40;13.13;;;;;;;;;;5038051;28;20209;-40
2022/12/18 02:23:51;;;;;;;37.10;12.70;;;;;;;;;;5037489;28;20540;-40
2022/12/18 02:26:22;;;;;;;19.90;9.47;;;;;;;;;;5021606;28;20189;-40
2022/12/18 02:29:04;;;;;;;21.73;10.23;;;;;;;;;;5037109;28;20636;-39
2022/12/18 02:31:37;;;;;;;26.10;11.27;;;;;;;;;;5040098;28;20212;-40
2022/12/18 02:34:07;;;;;;;25.47;10.50;;;;;;;;;;5044936;28;20220;-40
2022/12/18 02:36:40;;;;;;;19.43;8.33;;;;;;;;;;5036874;28;20611;-39
2022/12/18 02:39:09;;;;;;;22.70;8.97;;;;;;;;;;5021284;28;20220;-39
2022/12/18 02:41:40;;;;;;;13.53;6.03;;;;;;;;;;5021450;28;20215;-39
2022/12/18 02:44:10;;;;;;;19.00;5.83;;;;;;;;;;5020906;28;20221;-40
2022/12/18 02:46:49;;;;;;;12.47;6.43;;;;;;;;;;5053529;28;20212;-40
2022/12/18 02:49:25;;;;;;;22.03;8.03;;;;;;;;;;5053337;28;20216;-39
2022/12/18 02:52:07;;;;;;;26.03;10.07;;;;;;;;;;5053424;28;20558;-39
2022/12/18 02:54:57;;;;;;;38.83;14.93;;;;;;;;;;5053465;28;20196;-40
2022/12/18 02:57:42;;;;;;;18.57;9.83;;;;;;;;;;5036722;28;20196;-40
2022/12/18 03:00:22;;;;;;;39.47;14.50;;;;;;;;;;5036711;28;20211;-45
2022/12/18 03:02:57;;;;;;;27.17;10.73;;;;;;;;;;5020094;28;20196;-39
2022/12/18 03:05:33;;;;;;;27.23;9.73;;;;;;;;;;5020801;28;20204;-40
2022/12/18 03:08:34;;;;;;;18.77;7.97;;;;;;;;;;5020331;28;20255;-39
2022/12/18 03:11:10;;;;;;;7.50;5.33;;;;;;;;;;5036555;28;20274;-39
2022/12/18 03:13:51;;;;;;;10.77;5.00;;;;;;;;;;5035271;28;20212;-40
2022/12/18 03:16:25;;;;;;;22.17;6.90;;;;;;;;;;5020433;28;20181;-40
2022/12/18 03:18:57;;;;;;;44.87;16.43;;;;;;;;;;5037749;28;20262;-40
2022/12/18 03:21:35;;;;;;;25.60;11.37;;;;;;;;;;5020040;28;20200;-39
2022/12/18 03:24:05;;;;;;;20.70;10.33;;;;;;;;;;5069509;28;20196;-40
2022/12/18 03:26:34;;;;;;;16.00;6.93;;;;;;;;;;5052754;28;20266;-41
2022/12/18 03:29:07;;;;;;;29.03;8.57;;;;;;;;;;5036184;28;20204;-40
2022/12/18 03:31:37;;;;;;;15.37;7.30;;;;;;;;;;5069294;28;20215;-40
2022/12/18 03:34:09;;;;;;;22.40;9.83;;;;;;;;;;5019504;28;20631;-40
2022/12/18 03:36:42;;;;;;;21.10;10.13;;;;;;;;;;5020848;28;20188;-39
2022/12/18 03:39:10;;;;;;;27.33;8.90;;;;;;;;;;5035598;28;20224;-39
2022/12/18 03:41:52;;;;;;;36.33;14.40;;;;;;;;;;5035810;28;20698;-40
2022/12/18 03:44:37;;;;;;;22.17;10.83;;;;;;;;;;5020347;28;20238;-40
2022/12/18 03:47:13;;;;;;;21.60;8.67;;;;;;;;;;5019379;28;20208;-39
2022/12/18 03:50:11;;;;;;;27.70;11.93;;;;;;;;;;5036391;28;20208;-40
2022/12/18 03:52:47;;;;;;;29.20;11.07;;;;;;;;;;5036838;28;20206;-40
2022/12/18 03:55:15;;;;;;;31.53;10.60;;;;;;;;;;5019293;28;20263;-39
2022/12/18 03:57:45;;;;;;;23.87;10.13;;;;;;;;;;5035787;28;20577;-40
2022/12/18 04:00:14;;;;;;;33.83;11.73;;;;;;;;;;5019229;28;20283;-39
2022/12/18 04:02:55;;;;;;;23.37;9.47;;;;;;;;;;5020967;28;20197;-39
2022/12/18 04:05:31;;;;;;;32.73;10.83;;;;;;;;;;5020006;28;20204;-40
2022/12/18 04:08:00;;;;;;;31.37;12.00;;;;;;;;;;5018963;28;20216;-40
2022/12/18 04:10:28;;;;;;;42.63;14.63;;;;;;;;;;5019488;28;20224;-39
2022/12/18 04:12:57;;;;;;;27.60;11.63;;;;;;;;;;5035308;28;20204;-39
2022/12/18 04:15:25;;;;;;;23.17;8.47;;;;;;;;;;5035157;28;20266;-39
2022/12/18 04:17:52;;;;;;;15.83;7.07;;;;;;;;;;5068177;28;20204;-40
2022/12/18 04:20:23;;;;;;;26.37;11.03;;;;;;;;;;5068497;28;20236;-40
2022/12/18 04:22:50;;;;;;;26.53;10.67;;;;;;;;;;5034904;28;20651;-39
2022/12/18 04:25:19;;;;;;;31.77;12.50;;;;;;;;;;5034652;28;20209;-39
2022/12/18 04:27:57;;;;;;;21.03;9.07;;;;;;;;;;5034912;28;20244;-41
2022/12/18 04:30:24;;;;;;;25.97;9.77;;;;;;;;;;5035869;28;20634;-40
2022/12/18 04:32:51;;;;;;;18.90;8.17;;;;;;;;;;5034536;28;20227;-40
2022/12/18 04:35:20;;;;;;;24.03;9.73;;;;;;;;;;5034920;28;20209;-40
2022/12/18 04:37:47;;;;;;;25.17;11.77;;;;;;;;;;5035718;28;20205;-40
2022/12/18 04:40:15;;;;;;;27.77;12.70;;;;;;;;;;5034518;28;20224;-39
2022/12/18 04:42:45;;;;;;;25.27;10.93;;;;;;;;;;5035525;28;20227;-40
2022/12/18 04:45:12;;;;;;;19.57;7.33;;;;;;;;;;5035546;28;20228;-40
2022/12/18 04:47:40;;;;;;;17.17;7.17;;;;;;;;;;5035543;28;20205;-40
2022/12/18 04:50:07;;;;;;;22.43;10.10;;;;;;;;;;5035298;28;20209;-40
2022/12/18 04:52:34;;;;;;;15.17;6.17;;;;;;;;;;5035663;28;20499;-40
2022/12/18 04:55:01;;;;;;;16.87;7.67;;;;;;;;;;5035347;28;20631;-40
2022/12/18 04:57:28;;;;;;;11.87;6.57;;;;;;;;;;5035169;28;20213;-39
2022/12/18 04:59:55;;;;;;;15.57;5.67;;;;;;;;;;5035216;28;20309;-39
2022/12/18 05:02:22;;;;;;;13.53;5.73;;;;;;;;;;5035341;28;20197;-40
2022/12/18 05:04:49;;;;;;;15.23;6.47;;;;;;;;;;5035410;28;20200;-39
2022/12/18 05:07:16;;;;;;;18.53;7.67;;;;;;;;;;5035449;28;20220;-40
2022/12/18 05:09:43;;;;;;;7.77;4.10;;;;;;;;;;5035184;28;20570;-40
2022/12/18 05:12:11;;;;;;;16.13;5.37;;;;;;;;;;5035153;28;20553;-40
2022/12/18 05:14:38;;;;;;;17.23;7.40;;;;;;;;;;5034447;28;20201;-40
2022/12/18 05:17:05;;;;;;;9.13;5.23;;;;;;;;;;5047553;28;20208;-44
2022/12/18 05:19:32;;;;;;;16.10;8.00;;;;;;;;;;5052658;28;20583;-40
2022/12/18 05:21:59;;;;;;;12.33;5.47;;;;;;;;;;5045004;28;20207;-39
2022/12/18 05:24:26;;;;;;;13.97;6.97;;;;;;;;;;5044240;28;20271;-40
2022/12/18 05:26:53;;;;;;;18.10;6.37;;;;;;;;;;5052830;28;20512;-41
2022/12/18 05:29:20;;;;;;;16.60;8.60;;;;;;;;;;5052099;28;20242;-40
2022/12/18 05:31:47;;;;;;;19.30;7.90;;;;;;;;;;5043403;28;20197;-41
2022/12/18 05:34:14;;;;;;;23.83;10.53;;;;;;;;;;5043145;28;20261;-40
2022/12/18 05:36:42;;;;;;;21.23;9.23;;;;;;;;;;5042587;28;20258;-40
2022/12/18 05:39:10;;;;;;;16.27;6.13;;;;;;;;;;5044893;28;20223;-41
2022/12/18 05:41:37;;;;;;;12.40;6.60;;;;;;;;;;5042480;28;20204;-44
2022/12/18 05:44:04;;;;;;;12.67;5.63;;;;;;;;;;5044484;28;20293;-40
2022/12/18 05:46:32;;;;;;;16.73;7.23;;;;;;;;;;5043213;28;20197;-40
2022/12/18 05:49:00;;;;;;;16.17;6.97;;;;;;;;;;5042220;28;20677;-40
2022/12/18 05:51:28;;;;;;;8.83;4.53;;;;;;;;;;5044202;28;20211;-44
2022/12/18 05:53:55;;;;;;;25.80;9.97;;;;;;;;;;5043786;28;20220;-40
2022/12/18 05:56:22;;;;;;;9.67;5.20;;;;;;;;;;5042316;28;20196;-40
2022/12/18 05:58:53;;;;;;;14.97;5.13;;;;;;;;;;5043293;28;20541;-40
2022/12/18 06:01:24;;;;;;;16.60;7.57;;;;;;;;;;5044335;28;20196;-39
2022/12/18 06:03:51;;;;;;;14.73;6.73;;;;;;;;;;5042900;28;20204;-40
2022/12/18 06:06:24;;;;;;;17.57;9.53;;;;;;;;;;5042075;28;20204;-40
2022/12/18 06:08:51;;;;;;;23.60;11.70;;;;;;;;;;5044021;28;20634;-40
2022/12/18 06:11:21;;;;;;;21.30;9.97;;;;;;;;;;5044028;28;20200;-40
2022/12/18 06:13:52;;;;;;;28.60;11.87;;;;;;;;;;5043934;28;20578;-41
2022/12/18 06:16:26;;;;;;;16.97;8.33;;;;;;;;;;5074648;28;20184;-40
2022/12/18 06:18:56;;;;;;;23.93;11.97;;;;;;;;;;5049940;28;20230;-40
2022/12/18 06:21:23;;;;;;;16.30;8.00;;;;;;;;;;5047376;28;20639;-41
2022/12/18 06:23:50;;;;;;;13.10;6.10;;;;;;;;;;5042679;28;20213;-40
2022/12/18 06:26:17;;;;;;;9.63;4.57;;;;;;;;;;5044738;28;20514;-40
2022/12/18 06:28:51;;;;;;;7.77;4.13;;;;;;;;;;5044797;28;20191;-41
2022/12/18 06:31:19;;;;;;;11.50;5.40;;;;;;;;;;5043470;28;20189;-39
2022/12/18 06:33:46;;;;;;;10.33;5.57;;;;;;;;;;5042270;28;20212;-41
2022/12/18 06:36:13;;;;;;;10.70;5.60;;;;;;;;;;5044450;28;20188;-39
2022/12/18 06:38:43;;;;;;;18.67;9.03;;;;;;;;;;5044391;28;20209;-40
2022/12/18 06:41:12;;;;;;;26.33;10.80;;;;;;;;;;5044135;28;20248;-40
2022/12/18 06:43:39;;;;;;;12.93;6.67;;;;;;;;;;5042544;28;20212;-39
2022/12/18 06:46:08;;;;;;;11.90;6.60;;;;;;;;;;5043041;28;20250;-41
2022/12/18 06:48:35;;;;;;;15.77;5.97;;;;;;;;;;5042775;28;20253;-40
2022/12/18 06:51:03;;;;;;;15.33;6.87;;;;;;;;;;5046371;28;20670;-45
2022/12/18 06:53:30;;;;;;;8.90;5.53;;;;;;;;;;5048171;28;20243;-40
2022/12/18 06:56:05;;;;;;;11.73;6.13;;;;;;;;;;5050090;28;20231;-41
2022/12/18 06:58:37;;;;;;;14.70;9.00;;;;;;;;;;5037056;28;20300;-39
2022/12/18 07:01:06;;;;;;;17.00;6.90;;;;;;;;;;5035415;28;20251;-42
2022/12/18 07:03:33;;;;;;;9.90;5.07;;;;;;;;;;5036796;28;20596;-39
2022/12/18 07:06:01;;;;;;;17.53;8.83;;;;;;;;;;5036342;28;20224;-40
2022/12/18 07:08:29;;;;;;;13.83;6.17;;;;;;;;;;5043803;28;20219;-41
2022/12/18 07:10:57;;;;;;;18.03;6.97;;;;;;;;;;5053052;28;20579;-40
2022/12/18 07:13:24;;;;;;;9.57;4.77;;;;;;;;;;5046462;28;20227;-39
2022/12/18 07:15:51;;;;;;;13.90;7.53;;;;;;;;;;5045897;28;20221;-40
2022/12/18 07:18:18;;;;;;;16.33;7.37;;;;;;;;;;5047725;28;20236;-40
2022/12/18 07:20:45;;;;;;;21.57;9.93;;;;;;;;;;5056042;28;20240;-39
2022/12/18 07:23:13;;;;;;;14.23;7.10;;;;;;;;;;5052819;28;20216;-43
2022/12/18 07:25:40;;;;;;;21.57;9.10;;;;;;;;;;5048850;28;20216;-40
2022/12/18 07:28:07;;;;;;;9.13;5.07;;;;;;;;;;5043901;28;20220;-42
2022/12/18 07:30:41;;;;;;;15.23;6.13;;;;;;;;;;5045779;28;20216;-39
2022/12/18 07:33:08;;;;;;;11.73;6.80;;;;;;;;;;5048792;28;20224;-40
2022/12/18 07:35:36;;;;;;;19.60;8.63;;;;;;;;;;5048532;28;20737;-41
2022/12/18 07:38:03;;;;;;;12.53;6.93;;;;;;;;;;5045354;28;20235;-42
2022/12/18 07:40:30;;;;;;;10.10;5.00;;;;;;;;;;5041749;28;20243;-40
2022/12/18 07:42:57;;;;;;;15.00;8.77;;;;;;;;;;5047929;28;20662;-39
2022/12/18 07:45:24;;;;;;;14.97;6.83;;;;;;;;;;5045512;28;20235;-42
2022/12/18 07:47:51;;;;;;;18.00;6.83;;;;;;;;;;5040884;28;20215;-42
2022/12/18 07:50:19;;;;;;;17.43;7.17;;;;;;;;;;5044435;28;20239;-43
2022/12/18 07:52:46;;;;;;;9.00;5.27;;;;;;;;;;5044825;28;20252;-39
2022/12/18 07:55:13;;;;;;;10.67;5.77;;;;;;;;;;5042810;28;20659;-41
2022/12/18 07:57:40;;;;;;;15.57;7.60;;;;;;;;;;5045848;28;20217;-41
2022/12/18 08:00:18;;;;;;;31.03;10.87;;;;;;;;;;5043588;28;20329;-42
2022/12/18 08:02:45;;;;;;;11.93;5.87;;;;;;;;;;5054978;28;20224;-43
2022/12/18 08:05:13;;;;;;;60.33;18.50;;;;;;;;;;5054243;28;20310;-40
2022/12/18 08:07:40;;;;;;;29.87;7.50;;;;;;;;;;5055290;28;20224;-39
2022/12/18 08:10:07;;;;;;;15.53;7.17;;;;;;;;;;5055052;28;20232;-43
2022/12/18 08:12:34;;;;;;;14.30;7.00;;;;;;;;;;5053511;28;20227;-42
2022/12/18 08:15:01;;;;;;;24.73;10.13;;;;;;;;;;5054535;28;20224;-39
2022/12/18 08:17:29;;;;;;;121.60;38.77;;;;;;;;;;5053747;28;20220;-41
2022/12/18 08:19:56;;;;;;;75.67;27.97;;;;;;;;;;5053455;28;20286;-42
2022/12/18 08:22:23;;;;;;;20.33;8.33;;;;;;;;;;5042007;28;20212;-40
2022/12/18 08:24:50;;;;;;;45.00;16.30;;;;;;;;;;5033496;28;20274;-40
2022/12/18 08:27:17;;;;;;;36.23;13.30;;;;;;;;;;5033898;28;20237;-40
2022/12/18 08:29:57;;;;;;;43.30;16.77;;;;;;;;;;5050513;28;20270;-41
2022/12/18 08:32:25;;;;;;;15.77;7.27;;;;;;;;;;5052357;28;20666;-42
2022/12/18 08:34:53;;;;;;;32.07;13.60;;;;;;;;;;5054256;28;20278;-39
2022/12/18 08:37:19;;;;;;;37.57;13.27;;;;;;;;;;5054362;28;20227;-39
2022/12/18 08:39:47;;;;;;;22.80;9.83;;;;;;;;;;5053842;28;20242;-40
2022/12/18 08:44:59;;;;;;;27.47;10.93;;;;;;;;;;5054020;28;20235;-39
2022/12/18 08:47:26;;;;;;;31.23;13.90;;;;;;;;;;5053110;28;20224;-39
2022/12/18 08:49:54;;;;;;;54.03;18.37;;;;;;;;;;5039850;28;20604;-41
2022/12/18 08:52:20;;;;;;;19.63;7.07;;;;;;;;;;5032573;28;20224;-43
2022/12/18 08:54:47;;;;;;;18.37;7.10;;;;;;;;;;5034680;28;20221;-43
2022/12/18 08:57:14;;;;;;;17.80;6.60;;;;;;;;;;5040709;28;20670;-42
2022/12/18 08:59:42;;;;;;;25.90;11.17;;;;;;;;;;5044347;28;20236;-44
2022/12/18 09:02:12;;;;;;;15.53;7.13;;;;;;;;;;5036558;28;20229;-41
2022/12/18 09:04:39;;;;;;;27.60;8.27;;;;;;;;;;5037172;28;20227;-40
2022/12/18 09:07:07;;;;;;;5.43;2.97;;;;;;;;;;5034214;28;20286;-43
2022/12/18 09:09:34;;;;;;;17.40;8.43;;;;;;;;;;5034882;28;20223;-39
2022/12/18 09:12:01;;;;;;;10.97;5.00;;;;;;;;;;5032846;28;20224;-42
2022/12/18 09:14:28;;;;;;;18.90;7.40;;;;;;;;;;5033353;28;20225;-40
2022/12/18 09:16:55;;;;;;;10.73;4.83;;;;;;;;;;5033264;28;20252;-39
2022/12/18 09:19:22;;;;;;;10.13;5.70;;;;;;;;;;5033812;28;20245;-41
2022/12/18 09:21:49;;;;;;;28.47;11.73;;;;;;;;;;5036416;28;20247;-42
2022/12/18 09:24:17;;;;;;;7.13;4.40;;;;;;;;;;5042849;28;20561;-41
2022/12/18 09:26:44;;;;;;;34.90;14.13;;;;;;;;;;5033830;28;20235;-40
2022/12/18 09:29:15;;;;;;;13.17;6.43;;;;;;;;;;5042929;28;20326;-44
2022/12/18 09:31:44;;;;;;;24.53;10.53;;;;;;;;;;5053057;28;20677;-39
2022/12/18 09:34:12;;;;;;;12.17;6.13;;;;;;;;;;5053541;28;20228;-40
2022/12/18 09:36:39;;;;;;;20.73;8.83;;;;;;;;;;5051952;28;20252;-41
2022/12/18 09:39:06;;;;;;;13.23;5.73;;;;;;;;;;5053154;28;20544;-41
2022/12/18 09:41:42;;;;;;;18.77;6.97;;;;;;;;;;5053362;28;20244;-42
2022/12/18 09:44:12;;;;;;;27.97;11.77;;;;;;;;;;5052388;28;20219;-47
2022/12/18 09:46:44;;;;;;;21.63;8.30;;;;;;;;;;5053085;28;20251;-41
2022/12/18 09:49:14;;;;;;;13.90;6.40;;;;;;;;;;5052102;28;20559;-42
2022/12/18 09:51:54;;;;;;;22.67;8.07;;;;;;;;;;5051861;28;20232;-43
2022/12/18 09:54:30;;;;;;;9.67;4.90;;;;;;;;;;5052241;28;20235;-40
2022/12/18 09:56:57;;;;;;;20.70;8.07;;;;;;;;;;5050999;28;20223;-41
2022/12/18 09:59:33;;;;;;;11.83;5.30;;;;;;;;;;5052081;28;20561;-42
2022/12/18 10:02:00;;;;;;;26.03;10.07;;;;;;;;;;5052488;28;20330;-41
2022/12/18 10:04:29;;;;;;;16.50;6.40;;;;;;;;;;5051474;28;20232;-43
2022/12/18 10:07:11;;;;;;;14.57;6.30;;;;;;;;;;5052529;28;20220;-40
2022/12/18 10:09:56;;;;;;;14.10;7.10;;;;;;;;;;5053279;28;20562;-41
2022/12/18 10:12:28;;;;;;;32.00;13.80;;;;;;;;;;5051547;28;20295;-42
2022/12/18 10:14:55;;;;;;;26.70;10.27;;;;;;;;;;5052667;28;20235;-40
2022/12/18 10:18:16;;;;;;;38.03;15.03;;;;;;;;;;5053171;28;20414;-40
2022/12/18 10:20:57;;;;;;;15.43;6.50;;;;;;;;;;4972649;28;20255;-40
2022/12/18 10:23:33;;;;;;;17.80;6.97;;;;;;;;;;4973730;28;20643;-41
2022/12/18 10:26:03;;;;;;;22.53;8.03;;;;;;;;;;4959252;28;20281;-42
2022/12/18 10:28:32;;;;;;;30.57;9.83;;;;;;;;;;4979628;28;20932;-43
2022/12/18 10:31:02;;;;;;;14.97;7.07;;;;;;;;;;4982610;28;20230;-41
2022/12/18 10:33:30;;;;;;;30.73;11.43;;;;;;;;;;4975606;28;20644;-43
2022/12/18 10:35:57;;;;;;;46.50;17.77;;;;;;;;;;4974869;28;20293;-41
2022/12/18 10:38:31;;;;;;;20.77;10.23;;;;;;;;;;4975953;28;20229;-40
2022/12/18 10:41:05;;;;;;;31.40;12.50;;;;;;;;;;4974563;28;20254;-48
2022/12/18 10:43:37;;;;;;;23.97;11.13;;;;;;;;;;4958008;28;20227;-43
2022/12/18 10:46:07;;;;;;;22.37;9.47;;;;;;;;;;4975414;28;20242;-41
2022/12/18 10:48:49;;;;;;;26.33;10.63;;;;;;;;;;4974997;28;20235;-42
2022/12/18 10:51:37;;;;;;;31.00;11.33;;;;;;;;;;4958920;28;20289;-40
2022/12/18 10:54:13;;;;;;;21.77;10.57;;;;;;;;;;5002238;28;20569;-44
2022/12/18 10:56:41;;;;;;;22.23;9.10;;;;;;;;;;5055700;28;20281;-41
2022/12/18 10:59:12;;;;;;;30.57;10.80;;;;;;;;;;5055802;28;20224;-43
2022/12/18 11:01:47;;;;;;;28.70;12.00;;;;;;;;;;5054142;28;20799;-40
2022/12/18 11:04:18;;;;;;;36.23;14.00;;;;;;;;;;5044832;28;20245;-41
2022/12/18 11:07:03;;;;;;;37.43;14.30;;;;;;;;;;5046102;28;20216;-42
2022/12/18 11:09:32;;;;;;;14.80;6.43;;;;;;;;;;5049590;28;20555;-41
2022/12/18 11:12:03;;;;;;;24.00;10.10;;;;;;;;;;5054703;28;20243;-43
2022/12/18 11:14:41;;;;;;;19.60;8.80;;;;;;;;;;5055530;28;20281;-42
2022/12/18 11:17:28;;;;;;;20.00;8.27;;;;;;;;;;5053222;28;20630;-42
2022/12/18 11:20:04;;;;;;;20.73;8.77;;;;;;;;;;5052114;28;20235;-40
2022/12/18 11:22:36;;;;;;;18.70;7.10;;;;;;;;;;5051040;28;20220;-40
2022/12/18 11:25:21;;;;;;;21.23;8.97;;;;;;;;;;5051439;28;20239;-49
2022/12/18 11:28:08;;;;;;;25.43;12.33;;;;;;;;;;5053809;28;20235;-46
2022/12/18 11:30:36;;;;;;;27.27;11.90;;;;;;;;;;5053961;28;20559;-41
2022/12/18 11:33:17;;;;;;;24.23;8.97;;;;;;;;;;5052338;28;20224;-46
2022/12/18 11:35:48;;;;;;;16.03;7.37;;;;;;;;;;5054742;28;20247;-40
2022/12/18 11:38:26;;;;;;;24.43;10.57;;;;;;;;;;5055819;28;20231;-41
2022/12/18 11:41:00;;;;;;;21.83;8.53;;;;;;;;;;5053282;28;20231;-40
2022/12/18 11:43:50;;;;;;;12.03;6.00;;;;;;;;;;5054199;28;21344;-40
2022/12/18 11:46:39;;;;;;;18.80;9.17;;;;;;;;;;5054163;28;20670;-40
2022/12/18 11:49:14;;;;;;;13.13;6.63;;;;;;;;;;5054856;28;20223;-41
2022/12/18 11:51:48;;;;;;;16.60;6.23;;;;;;;;;;5052557;28;20223;-41
2022/12/18 11:54:15;;;;;;;17.07;7.67;;;;;;;;;;5042150;28;20222;-41
2022/12/18 11:56:59;;;;;;;39.43;15.87;;;;;;;;;;5048266;28;20248;-42
2022/12/18 11:59:38;;;;;;;24.07;9.87;;;;;;;;;;5050924;28;20216;-41
2022/12/18 12:02:22;;;;;;;15.07;6.60;;;;;;;;;;5055318;28;20238;-41
2022/12/18 12:05:02;;;;;;;14.17;5.83;;;;;;;;;;5055375;28;20662;-40
2022/12/18 12:07:38;;;;;;;18.33;7.73;;;;;;;;;;5055357;28;20240;-44
2022/12/18 12:10:31;;;;;;;21.60;8.47;;;;;;;;;;5055022;28;20560;-43
2022/12/18 12:13:27;;;;;;;35.10;14.97;;;;;;;;;;5055220;28;20235;-41
2022/12/18 12:16:44;;;;;;;48.17;19.57;;;;;;;;;;5042336;28;20243;-42
2022/12/18 12:19:25;;;;;;;16.50;6.93;;;;;;;;;;4993041;28;20237;-41
2022/12/18 12:22:00;;;;;;;55.63;19.80;;;;;;;;;;5009532;28;20238;-42
2022/12/18 12:24:27;;;;;;;21.40;7.53;;;;;;;;;;4977169;28;20696;-40
2022/12/18 12:27:15;;;;;;;40.40;13.40;;;;;;;;;;4993865;28;20234;-40
2022/12/18 12:30:05;;;;;;;21.17;8.47;;;;;;;;;;4993286;28;20226;-40
2022/12/18 12:33:02;;;;;;;22.73;9.57;;;;;;;;;;4993166;28;20695;-41
2022/12/18 12:35:43;;;;;;;18.53;6.47;;;;;;;;;;5009693;28;20249;-45
2022/12/18 12:38:12;;;;;;;11.00;5.60;;;;;;;;;;4993033;28;20233;-42
2022/12/18 12:40:45;;;;;;;25.70;10.27;;;;;;;;;;4990233;28;20229;-41
2022/12/18 12:43:31;;;;;;;13.63;6.53;;;;;;;;;;4992827;28;20234;-41
2022/12/18 12:46:05;;;;;;;25.67;9.33;;;;;;;;;;4993167;28;20228;-42
2022/12/18 12:48:35;;;;;;;25.50;10.50;;;;;;;;;;4992836;28;20218;-40
2022/12/18 12:51:11;;;;;;;23.20;8.73;;;;;;;;;;5009355;28;20226;-40
2022/12/18 12:53:41;;;;;;;46.07;18.33;;;;;;;;;;5040144;28;20670;-41
2022/12/18 12:56:11;;;;;;;30.47;10.77;;;;;;;;;;5052950;28;20679;-42
2022/12/18 12:58:44;;;;;;;14.03;6.70;;;;;;;;;;5044447;28;20610;-41
2022/12/18 13:01:28;;;;;;;10.80;4.90;;;;;;;;;;5044017;28;20297;-43
2022/12/18 13:04:05;;;;;;;28.90;13.63;;;;;;;;;;5033541;28;20675;-41
2022/12/18 13:06:35;;;;;;;23.47;9.77;;;;;;;;;;5033833;28;20228;-42
2022/12/18 13:09:06;;;;;;;18.17;7.77;;;;;;;;;;5030348;28;20229;-46
2022/12/18 13:14:31;;;;;;;16.53;7.40;;;;;;;;;;5050158;28;20224;-41
2022/12/18 13:17:16;;;;;;;22.73;9.73;;;;;;;;;;5052105;28;20239;-41
2022/12/18 13:19:45;;;;;;;35.47;15.30;;;;;;;;;;5052759;28;20235;-41
2022/12/18 13:22:25;;;;;;;28.63;10.57;;;;;;;;;;5050218;28;20232;-44
2022/12/18 13:24:52;;;;;;;24.30;11.60;;;;;;;;;;5051701;28;20219;-41
2022/12/18 13:27:45;;;;;;;26.33;11.27;;;;;;;;;;5053053;28;20322;-41
2022/12/18 13:30:31;;;;;;;31.10;13.87;;;;;;;;;;5053583;28;20219;-41
2022/12/18 13:33:13;;;;;;;35.17;13.77;;;;;;;;;;5044399;28;20231;-41
2022/12/18 13:35:42;;;;;;;22.87;10.07;;;;;;;;;;5033366;28;20229;-41
2022/12/18 13:38:34;;;;;;;27.97;11.47;;;;;;;;;;5047836;28;20258;-41
2022/12/18 13:41:04;;;;;;;21.50;8.57;;;;;;;;;;5032839;28;20229;-40
2022/12/18 13:43:53;;;;;;;21.67;9.80;;;;;;;;;;5032829;28;20567;-40
2022/12/18 13:46:23;;;;;;;18.10;8.87;;;;;;;;;;5032911;28;20231;-40
2022/12/18 13:49:13;;;;;;;26.73;10.43;;;;;;;;;;5032708;28;20220;-40
2022/12/18 13:51:47;;;;;;;24.40;10.93;;;;;;;;;;5032864;28;20229;-40
2022/12/18 13:54:26;;;;;;;28.43;10.47;;;;;;;;;;5031449;28;20232;-44
2022/12/18 13:56:53;;;;;;;22.47;9.17;;;;;;;;;;5033286;28;20216;-40
2022/12/18 13:59:39;;;;;;;16.83;7.00;;;;;;;;;;5037436;28;20256;-42
2022/12/18 14:02:16;;;;;;;19.30;7.83;;;;;;;;;;5036559;28;20244;-42
2022/12/18 14:04:48;;;;;;;23.30;10.53;;;;;;;;;;5037330;28;20243;-40
2022/12/18 14:07:26;;;;;;;45.07;19.23;;;;;;;;;;5041798;28;20231;-42
2022/12/18 14:10:01;;;;;;;59.17;19.27;;;;;;;;;;5054520;28;20657;-43
2022/12/18 14:12:58;;;;;;;36.73;14.57;;;;;;;;;;5047668;28;20523;-40
2022/12/18 14:15:36;;;;;;;48.07;20.53;;;;;;;;;;5047140;28;20301;-42
2022/12/18 14:18:14;;;;;;;64.30;30.13;;;;;;;;;;5047278;28;20238;-42
2022/12/18 14:20:43;;;;;;;39.63;17.50;;;;;;;;;;5047970;28;20227;-43
2022/12/18 14:23:34;;;;;;;27.33;9.83;;;;;;;;;;5049615;28;20285;-42
2022/12/18 14:26:03;;;;;;;50.47;17.60;;;;;;;;;;5043140;28;20236;-44
2022/12/18 14:28:32;;;;;;;47.17;16.23;;;;;;;;;;5057075;28;20278;-43
2022/12/18 14:30:59;;;;;;;48.50;16.23;;;;;;;;;;5057425;28;20238;-41
2022/12/18 14:33:27;;;;;;;43.00;16.70;;;;;;;;;;5055497;28;20532;-40
2022/12/18 14:35:58;;;;;;;36.30;13.30;;;;;;;;;;5055489;28;20422;-42
2022/12/18 14:38:36;;;;;;;52.67;18.47;;;;;;;;;;5055764;28;20224;-40
2022/12/18 14:41:04;;;;;;;54.60;18.60;;;;;;;;;;5056312;28;20235;-48
2022/12/18 14:43:33;;;;;;;79.20;23.53;;;;;;;;;;5054196;28;20224;-44
2022/12/18 14:46:01;;;;;;;73.70;23.83;;;;;;;;;;5054225;28;20878;-42
2022/12/18 14:48:37;;;;;;;71.60;18.63;;;;;;;;;;5056479;28;20663;-40
2022/12/18 14:51:13;;;;;;;45.60;15.53;;;;;;;;;;5056546;28;20251;-45
2022/12/18 14:54:03;;;;;;;66.73;21.33;;;;;;;;;;5055799;28;20215;-41
2022/12/18 14:56:31;;;;;;;41.27;15.03;;;;;;;;;;5056498;28;20227;-43
2022/12/18 14:58:59;;;;;;;78.33;25.57;;;;;;;;;;5055771;28;20231;-41
2022/12/18 15:01:58;;;;;;;75.57;32.57;;;;;;;;;;5055648;28;20244;-40